Onweer radar Meer informatie blitzortung!


Regen radar Meer informatie rain snow radar


Bezoek ook deze websites:

Template documentation
and downloads

And another site


Het weer levert geen direct gevaar op.    Er zijn geen waarschuwingen afgegeven.

METAR rapporten vliegvelden

   
EHVK - Volkel Rnlafb, Netherlands
Afstand tot: ZW 18 km
Gewijzigd: Jan 18 2020 1:25 pm
Grotendeels bewolkt  
Grotendeels bewolkt  
   Wind: WZW 20.4 km/h
Wind: WZW 20.4 km/h
Temperatuur: 7°C
Voelt als: 3°C
Dauwpunt: 3°C
Vochtigheid: 76%
Barometer: 1024 hPa
Bewolking: Grotendeels bewolkt
Zicht: meer dan 10 km
Bewolking: Licht bewolkt 487.7 m,
Gedeeltelijk bewolkt 579.1 m,
Grotendeels bewolkt 853.4 m
EHVK 181225Z AUTO 25011KT 210V270 9999 FEW016 SCT019 BKN028 07/03 Q1024 WHT
EDLV - Niederrhein, Germany
Afstand tot: ZO 25 km
Gewijzigd: Jan 18 2020 1:20 pm
Gedeeltelijk bewolkt  
Gedeeltelijk bewolkt  
   Wind: Westen 22.2 km/h
Wind: Westen 22.2 km/h
Temperatuur: 6°C
Voelt als: 2°C
Dauwpunt: 3°C
Vochtigheid: 81%
Barometer: 1024 hPa
Bewolking: Gedeeltelijk bewolkt
Zicht: meer dan 10 km
Bewolking: Gedeeltelijk bewolkt 487.7 m
EDLV 181220Z 26012KT 9999 SCT016 06/03 Q1024
EHDL - Deelen Rnlafb, Netherlands
Afstand tot: N 35 km
Gewijzigd: Jan 18 2020 1:25 pm
Grotendeels bewolkt  
Grotendeels bewolkt  
   Wind: Westen 18.5 km/h
Wind: Westen 18.5 km/h
Temperatuur: 7°C
Voelt als: 4°C
Dauwpunt: 2°C
Vochtigheid: 71%
Barometer: 1023 hPa
Bewolking: Grotendeels bewolkt
Zicht: meer dan 10 km
Bewolking: Grotendeels bewolkt 487.7 m,
Grotendeels bewolkt 609.6 m,
Grotendeels bewolkt 762 m
EHDL 181225Z AUTO 26010KT 200V330 9999 BKN016 BKN020 BKN025 07/02 Q1023 WHT
EHEH - Eindhoven Rnlafb, Netherlands
Afstand tot: ZW 48 km
Gewijzigd: Jan 18 2020 1:25 pm
Licht bewolkt  
Licht bewolkt  
   Wind: WZW 16.7 km/h
Wind: WZW 16.7 km/h
Temperatuur: 7°C
Voelt als: 4°C
Dauwpunt: 3°C
Vochtigheid: 76%
Barometer: 1025 hPa
Bewolking: Licht bewolkt
Zicht: meer dan 10 km
Bewolking: Licht bewolkt 640.1 m
EHEH 181225Z AUTO 24009KT 220V280 9999 FEW021 07/03 Q1025 BLU 26010KT 9999 SCT018
EHGR - Gilze-Rijen Rnla, Netherlands
Afstand tot: WZW 70 km
Gewijzigd: Jan 18 2020 1:25 pm
Grotendeels bewolkt  
Grotendeels bewolkt  
   Wind: Westen 25.9 km/h
Wind: Westen 25.9 km/h
Temperatuur: 7°C
Voelt als: 3°C
Dauwpunt: 3°C
Vochtigheid: 76%
Barometer: 1024 hPa
Bewolking: Grotendeels bewolkt
Zicht: meer dan 10 km
Bewolking: Grotendeels bewolkt 579.1 m,
Grotendeels bewolkt 701 m
EHGR 181225Z AUTO 28014KT 250V310 9999 BKN019 BKN023 07/03 Q1024 WHT
EBBL - Kleine-Brogel(Ba, Belgium
Afstand tot: ZZW 71 km
Gewijzigd: Jan 18 2020 12:55 pm
Grotendeels bewolkt  
Grotendeels bewolkt  
   Wind: WZW 14.8 km/h
Wind: WZW 14.8 km/h
Temperatuur: 6°C
Voelt als: 3°C
Dauwpunt: 3°C
Vochtigheid: 81%
Barometer: 1025 hPa
Bewolking: Grotendeels bewolkt
Zicht: meer dan 10 km
Bewolking: Grotendeels bewolkt 487.7 m
EBBL 181155Z AUTO 25008KT 9999 BKN016/// 06/03 Q1025 WHT

Script ontwikkeld door  Saratoga-weather.org Aangepast voor de template door  Weerstation Leuven

U vindt ons ook hier:

UK Metoffice

Weather Underground